Mid City West, Pennsylvania
Current Conditions -  °F | °C
As of 2:54 AM on Thursday 23 Oct 2014 (Local Time) from KPHL Reporting Station
Overcast Overcast  
Wind Chill: 52°   Ceiling: 3100
Heat Index: 52°   Visibility: 9mi
Dew Point: 46°   Wind: 22mph
Humidity: 80%   Direction: 330°NNW
Pressure: 29.76"   Gusts: 28mph
Location:  39.9534°N, 75.1738°W
Report Text: KPHL 230654Z 33019G24KT 9SM FEW019 BKN031 OVC040 11/08 A2976 RMK AO2 PK WND 33026/0602 RAE52 SLP077 P0000 T01110078 $
Loading
Personal Weather Stations






























Interactive Weather Map
Tropical Storm Tracking
New forecast layout! Learn more

10-Day Weather Forecast

Advertisements
Track Severe Weather on mobile